Pagina principale
METAR-TAF:

METAR-TAF

Aeroporti :

Aeroporto d'Engadina

Sankt Moritz, Svizzera

latitudine: 46-32-03N, longitudine: 9-53-03E, altezza: 1707 m

Osservazione

Il bollettino è stato emesso 37 minuti fa, alle 12:20 UTC
Vento 1 kt da direzioni variabili
Temperature -4°C
Umidità 80%
Pressione 1020 hPa
Visibilità 10 km o più
nessuna nube inferiore a 1500 m e nessun cumulonembo

METAR: LSZS 061220Z VRB01KT CAVOK M04/M07 Q1020 RMK L TL170

Ora: 13:57 (12:57 UTC)

Previsione

Il bollettino è stato emesso 1 ora e 32 minuti fa, alle 11:25 UTC
Previsione valida dal 06 alle 12 UTC al 06 alle 21 UTC
Vento 3 kt da direzioni variabili
Visibilità 10 km o più
nessuna nube inferiore a 1500 m e nessun cumulonembo

TAF: LSZS 061125Z 0612/0621 VRB03KT CAVOK TXM01/0614Z

Osservazioni e previsioni meteorologiche di più di 4000 aeroporti (messaggi METAR e TAF).

Le stazioni disponibili sono rappresentate dai dischi gialli e rossi sulla carta.

Puntare il mouse per vedere il nome della stazione.

Clicca sopra per visualizzare le osservazioni e previsioni meteorologiche.

Per cambiare la mappa : fare clic sui pulsanti verdi con una croce nera per ingrandire, il pulsante verde con un trattino per diminuire, o sulla freccia verde per le mappe adiacenti.


METAR-TAF: